VGEG/CGP METAR and TAF weather

Enter ICAO airport designator
Station Type Date Time Source
VGEG METAR 2020/06/05 10:00 UTC NOAA

VGEG 051000Z 21010KT 5000 SCT016 FEW030CB BKN100 33/26 Q1004 NOSIG


Station Type Date Time Source
VGEG Decoded METAR 2020/06/05 10:00 UTC NOAA

Chittagong Patenga , Bangladesh (VGEG) 22-16N 091-49E 6M
Jun 05, 2020 - 06:00 AM EDT / 2020.06.05 1000 UTC
Wind: from the SSW (210 degrees) at 12 MPH (10 KT):0
Visibility: 3 mile(s):0
Sky conditions: mostly cloudy
Weather: Cumulonimbus clouds observed
Temperature: 91 F (33 C)
Heat index: 106.2 F (41.2 C):1
Dew Point: 78 F (26 C)
Relative Humidity: 66%
Pressure (altimeter): 29.65 in. Hg (1004 hPa)
ob: VGEG 051000Z 21010KT 5000 SCT016 FEW030CB BKN100 33/26 Q1004 NOSIG
cycle: 10

Station Type Date Time Source
VGEG TAF 2020/06/05 12:42 UTC NOAA

TAF TAF VGEG 051100Z 0512/0618 26010KT 5000 SCT016 SCT100
TEMPO 0523/0605 12020G30KT 2000 RA/TSRA SCT008 FEW025CB OVC090
BECMG 0606/0608 24012KT 5000 SCT016 SCT100

Example: see airport list